sensor_id;sensor_type;location;lat;lon;timestamp;pressure;altitude;pressure_sealevel;temperature;humidity
64192;BME280;50497;50.720;-2.084;2023-04-10T00:00:57;102088.03;;;10.46;100.00
64192;BME280;50497;50.720;-2.084;2023-04-10T00:03:27;102039.78;;;10.49;100.00
64192;BME280;50497;50.720;-2.084;2023-04-10T00:05:58;102022.78;;;10.50;100.00
64192;BME280;50497;50.720;-2.084;2023-04-10T00:08:28;101988.88;;;10.52;100.00
64192;BME280;50497;50.720;-2.084;2023-04-10T00:10:57;101899.25;;;10.36;100.00
64192;BME280;50497;50.720;-2.084;2023-04-10T00:13:23;101903.03;;;10.59;100.00
64192;BME280;50497;50.720;-2.084;2023-04-10T00:15:51;101891.75;;;10.47;100.00
64192;BME280;50497;50.720;-2.084;2023-04-10T00:18:21;101878.34;;;10.49;100.00
64192;BME280;50497;50.720;-2.084;2023-04-10T00:20:50;101873.00;;;10.49;100.00
64192;BME280;50497;50.720;-2.084;2023-04-10T00:23:26;101859.47;;;10.53;100.00
64192;BME280;50497;50.720;-2.084;2023-04-10T00:25:54;101854.66;;;10.66;100.00
64192;BME280;50497;50.720;-2.084;2023-04-10T00:28:23;101831.69;;;10.59;100.00
64192;BME280;50497;50.720;-2.084;2023-04-10T00:31:00;101831.59;;;10.61;100.00
64192;BME280;50497;50.720;-2.084;2023-04-10T00:33:30;101829.78;;;10.63;100.00
64192;BME280;50497;50.720;-2.084;2023-04-10T00:35:58;101834.41;;;10.58;100.00
64192;BME280;50497;50.720;-2.084;2023-04-10T00:38:28;101829.91;;;10.58;100.00
64192;BME280;50497;50.720;-2.084;2023-04-10T00:41:05;101837.03;;;10.59;100.00
64192;BME280;50497;50.720;-2.084;2023-04-10T00:43:37;101833.19;;;10.68;100.00
64192;BME280;50497;50.720;-2.084;2023-04-10T00:46:09;101834.19;;;10.64;100.00
64192;BME280;50497;50.720;-2.084;2023-04-10T00:48:46;101837.91;;;10.60;100.00
64192;BME280;50497;50.720;-2.084;2023-04-10T00:51:12;101822.97;;;10.52;100.00
64192;BME280;50497;50.720;-2.084;2023-04-10T00:53:41;101837.03;;;10.59;100.00
64192;BME280;50497;50.720;-2.084;2023-04-10T00:56:07;101839.38;;;10.70;100.00
64192;BME280;50497;50.720;-2.084;2023-04-10T00:58:36;101847.53;;;10.65;100.00
64192;BME280;50497;50.720;-2.084;2023-04-10T01:01:06;101861.63;;;10.72;100.00
64192;BME280;50497;50.720;-2.084;2023-04-10T01:03:38;101868.94;;;10.65;100.00
64192;BME280;50497;50.720;-2.084;2023-04-10T01:06:17;101877.03;;;10.64;100.00
64192;BME280;50497;50.720;-2.084;2023-04-10T01:08:57;101883.28;;;10.64;100.00
64192;BME280;50497;50.720;-2.084;2023-04-10T01:20:10;101920.75;;;10.64;100.00
64192;BME280;50497;50.720;-2.084;2023-04-10T01:30:27;101963.69;;;10.60;100.00
64192;BME280;50497;50.720;-2.084;2023-04-10T01:32:59;101973.38;;;10.64;100.00
64192;BME280;50497;50.720;-2.084;2023-04-10T01:35:30;101985.88;;;10.63;100.00
64192;BME280;50497;50.720;-2.084;2023-04-10T01:38:03;101987.63;;;10.66;100.00
64192;BME280;50497;50.720;-2.084;2023-04-10T01:40:30;101985.97;;;10.60;100.00
64192;BME280;50497;50.720;-2.084;2023-04-10T01:42:59;101991.19;;;10.65;100.00
64192;BME280;50497;50.720;-2.084;2023-04-10T01:45:28;102001.91;;;10.65;100.00
64192;BME280;50497;50.720;-2.084;2023-04-10T01:47:54;101987.03;;;10.54;100.00
64192;BME280;50497;50.720;-2.084;2023-04-10T01:50:21;102013.59;;;10.61;100.00
64192;BME280;50497;50.720;-2.084;2023-04-10T01:52:53;102023.53;;;10.56;100.00
64192;BME280;50497;50.720;-2.084;2023-04-10T01:55:30;102032.59;;;10.51;100.00
64192;BME280;50497;50.720;-2.084;2023-04-10T01:58:05;102036.25;;;10.47;100.00
64192;BME280;50497;50.720;-2.084;2023-04-10T02:00:44;102052.28;;;10.49;100.00
64192;BME280;50497;50.720;-2.084;2023-04-10T02:03:26;102065.66;;;10.49;100.00
64192;BME280;50497;50.720;-2.084;2023-04-10T02:06:17;102086.03;;;10.54;100.00
64192;BME280;50497;50.720;-2.084;2023-04-10T02:08:58;102104.72;;;10.56;100.00
64192;BME280;50497;50.720;-2.084;2023-04-10T02:11:46;102131.41;;;10.59;100.00
64192;BME280;50497;50.720;-2.084;2023-04-10T02:14:27;102143.03;;;10.58;100.00
64192;BME280;50497;50.720;-2.084;2023-04-10T02:16:56;102166.94;;;10.66;100.00
64192;BME280;50497;50.720;-2.084;2023-04-10T02:19:26;102171.56;;;10.59;100.00
64192;BME280;50497;50.720;-2.084;2023-04-10T02:21:59;102162.00;;;10.47;100.00
64192;BME280;50497;50.720;-2.084;2023-04-10T02:24:34;102167.56;;;10.40;100.00
64192;BME280;50497;50.720;-2.084;2023-04-10T02:27:11;102163.25;;;10.31;100.00
64192;BME280;50497;50.720;-2.084;2023-04-10T02:29:50;102154.38;;;10.32;100.00
64192;BME280;50497;50.720;-2.084;2023-04-10T02:32:16;102159.66;;;10.35;100.00
64192;BME280;50497;50.720;-2.084;2023-04-10T02:34:47;102160.59;;;10.32;100.00
64192;BME280;50497;50.720;-2.084;2023-04-10T02:37:23;102147.22;;;10.31;100.00
64192;BME280;50497;50.720;-2.084;2023-04-10T02:40:05;102138.50;;;10.23;100.00
64192;BME280;50497;50.720;-2.084;2023-04-10T02:42:34;102146.44;;;10.26;100.00
64192;BME280;50497;50.720;-2.084;2023-04-10T02:45:08;102137.53;;;10.25;100.00
64192;BME280;50497;50.720;-2.084;2023-04-10T02:47:34;102142.91;;;10.25;100.00
64192;BME280;50497;50.720;-2.084;2023-04-10T02:50:15;102112.03;;;10.10;100.00
64192;BME280;50497;50.720;-2.084;2023-04-10T02:52:44;102133.97;;;10.26;100.00
64192;BME280;50497;50.720;-2.084;2023-04-10T02:55:14;102136.50;;;10.31;100.00
64192;BME280;50497;50.720;-2.084;2023-04-10T02:57:40;102133.16;;;10.23;100.00
64192;BME280;50497;50.720;-2.084;2023-04-10T03:00:10;102103.03;;;10.14;100.00
64192;BME280;50497;50.720;-2.084;2023-04-10T03:02:42;102132.22;;;10.24;100.00
64192;BME280;50497;50.720;-2.084;2023-04-10T03:05:11;102128.81;;;10.17;100.00
64192;BME280;50497;50.720;-2.084;2023-04-10T03:07:43;102115.41;;;10.18;100.00
64192;BME280;50497;50.720;-2.084;2023-04-10T03:10:15;102104.72;;;10.18;100.00
64192;BME280;50497;50.720;-2.084;2023-04-10T03:12:55;102098.47;;;10.20;100.00
64192;BME280;50497;50.720;-2.084;2023-04-10T03:15:31;102086.81;;;10.21;100.00
64192;BME280;50497;50.720;-2.084;2023-04-10T03:18:05;102088.47;;;10.28;100.00
64192;BME280;50497;50.720;-2.084;2023-04-10T03:20:37;102084.84;;;10.29;100.00
64192;BME280;50497;50.720;-2.084;2023-04-10T03:23:14;102063.56;;;10.24;100.00
64192;BME280;50497;50.720;-2.084;2023-04-10T03:25:48;102069.81;;;10.25;100.00
64192;BME280;50497;50.720;-2.084;2023-04-10T03:28:18;102067.88;;;10.30;100.00
64192;BME280;50497;50.720;-2.084;2023-04-10T03:30:47;102073.09;;;10.38;100.00
64192;BME280;50497;50.720;-2.084;2023-04-10T03:33:17;102062.53;;;10.30;100.00
64192;BME280;50497;50.720;-2.084;2023-04-10T03:35:49;102066.88;;;10.35;100.00
64192;BME280;50497;50.720;-2.084;2023-04-10T03:38:22;102082.81;;;10.40;100.00
64192;BME280;50497;50.720;-2.084;2023-04-10T03:40:48;102087.91;;;10.51;100.00
64192;BME280;50497;50.720;-2.084;2023-04-10T03:43:20;102088.94;;;10.45;100.00
64192;BME280;50497;50.720;-2.084;2023-04-10T03:45:53;102072.13;;;10.40;100.00
64192;BME280;50497;50.720;-2.084;2023-04-10T03:48:19;102065.81;;;10.43;100.00
64192;BME280;50497;50.720;-2.084;2023-04-10T03:50:48;102059.56;;;10.42;100.00
64192;BME280;50497;50.720;-2.084;2023-04-10T03:53:16;102085.13;;;10.54;100.00
64192;BME280;50497;50.720;-2.084;2023-04-10T03:55:45;102099.53;;;10.50;100.00
64192;BME280;50497;50.720;-2.084;2023-04-10T03:58:11;102087.88;;;10.52;100.00
64192;BME280;50497;50.720;-2.084;2023-04-10T04:00:40;102092.41;;;10.49;100.00
64192;BME280;50497;50.720;-2.084;2023-04-10T04:03:11;102085.56;;;10.37;100.00
64192;BME280;50497;50.720;-2.084;2023-04-10T04:05:41;102115.63;;;10.48;100.00
64192;BME280;50497;50.720;-2.084;2023-04-10T04:08:07;102130.78;;;10.49;100.00
64192;BME280;50497;50.720;-2.084;2023-04-10T04:10:47;102115.91;;;10.38;100.00
64192;BME280;50497;50.720;-2.084;2023-04-10T04:13:23;102148.47;;;10.55;100.00
64192;BME280;50497;50.720;-2.084;2023-04-10T04:15:48;102166.31;;;10.54;100.00
64192;BME280;50497;50.720;-2.084;2023-04-10T04:18:14;102140.81;;;10.40;100.00
64192;BME280;50497;50.720;-2.084;2023-04-10T04:20:43;102157.53;;;10.49;100.00
64192;BME280;50497;50.720;-2.084;2023-04-10T04:23:10;102178.94;;;10.49;100.00
64192;BME280;50497;50.720;-2.084;2023-04-10T04:25:36;102168.59;;;10.31;100.00
64192;BME280;50497;50.720;-2.084;2023-04-10T04:28:04;102183.63;;;10.40;100.00
64192;BME280;50497;50.720;-2.084;2023-04-10T04:30:36;102190.84;;;10.36;100.00
64192;BME280;50497;50.720;-2.084;2023-04-10T04:33:05;102198.78;;;10.39;100.00
64192;BME280;50497;50.720;-2.084;2023-04-10T04:35:40;102198.72;;;10.42;100.00
64192;BME280;50497;50.720;-2.084;2023-04-10T04:38:17;102205.94;;;10.39;100.00
64192;BME280;50497;50.720;-2.084;2023-04-10T04:40:48;102206.97;;;10.33;100.00
64192;BME280;50497;50.720;-2.084;2023-04-10T04:43:20;102211.28;;;10.39;100.00
64192;BME280;50497;50.720;-2.084;2023-04-10T04:45:54;102210.41;;;10.38;100.00
64192;BME280;50497;50.720;-2.084;2023-04-10T04:48:23;102216.66;;;10.37;100.00
64192;BME280;50497;50.720;-2.084;2023-04-10T04:50:48;102205.25;;;10.27;100.00
64192;BME280;50497;50.720;-2.084;2023-04-10T04:53:22;102229.06;;;10.41;100.00
64192;BME280;50497;50.720;-2.084;2023-04-10T04:55:47;102223.66;;;10.44;100.00
64192;BME280;50497;50.720;-2.084;2023-04-10T04:58:19;102220.25;;;10.38;100.00
64192;BME280;50497;50.720;-2.084;2023-04-10T05:00:45;102209.63;;;10.33;100.00
64192;BME280;50497;50.720;-2.084;2023-04-10T05:03:14;102220.88;;;10.47;100.00
64192;BME280;50497;50.720;-2.084;2023-04-10T05:05:39;102200.69;;;10.34;100.00
64192;BME280;50497;50.720;-2.084;2023-04-10T05:08:08;102222.72;;;10.45;100.00
64192;BME280;50497;50.720;-2.084;2023-04-10T05:10:36;102232.50;;;10.48;100.00
64192;BME280;50497;50.720;-2.084;2023-04-10T05:13:06;102230.75;;;10.45;100.00
64192;BME280;50497;50.720;-2.084;2023-04-10T05:15:38;102233.38;;;10.47;100.00
64192;BME280;50497;50.720;-2.084;2023-04-10T05:18:07;102243.13;;;10.51;100.00
64192;BME280;50497;50.720;-2.084;2023-04-10T05:20:36;102244.03;;;10.50;100.00
64192;BME280;50497;50.720;-2.084;2023-04-10T05:23:03;102245.06;;;10.44;100.00
64192;BME280;50497;50.720;-2.084;2023-04-10T05:25:32;102238.84;;;10.42;100.00
64192;BME280;50497;50.720;-2.084;2023-04-10T05:27:57;102244.16;;;10.44;100.00
64192;BME280;50497;50.720;-2.084;2023-04-10T05:30:26;102250.41;;;10.44;100.00
64192;BME280;50497;50.720;-2.084;2023-04-10T05:32:52;102248.66;;;10.43;100.00
64192;BME280;50497;50.720;-2.084;2023-04-10T05:35:20;102229.19;;;10.35;100.00
64192;BME280;50497;50.720;-2.084;2023-04-10T05:37:45;102225.38;;;10.47;100.00
64192;BME280;50497;50.720;-2.084;2023-04-10T05:40:11;102218.13;;;10.50;100.00
64192;BME280;50497;50.720;-2.084;2023-04-10T05:42:36;102217.38;;;10.45;100.00
64192;BME280;50497;50.720;-2.084;2023-04-10T05:45:02;102216.41;;;10.49;100.00
64192;BME280;50497;50.720;-2.084;2023-04-10T05:47:28;102219.91;;;10.51;100.00
64192;BME280;50497;50.720;-2.084;2023-04-10T05:49:56;102221.69;;;10.52;100.00
64192;BME280;50497;50.720;-2.084;2023-04-10T05:52:22;102214.50;;;10.54;100.00
64192;BME280;50497;50.720;-2.084;2023-04-10T05:54:50;102214.41;;;10.58;100.00
64192;BME280;50497;50.720;-2.084;2023-04-10T05:57:16;102208.13;;;10.59;100.00
64192;BME280;50497;50.720;-2.084;2023-04-10T05:59:45;102202.00;;;10.53;100.00
64192;BME280;50497;50.720;-2.084;2023-04-10T06:02:13;102168.81;;;10.61;100.00
64192;BME280;50497;50.720;-2.084;2023-04-10T06:04:40;102196.78;;;10.47;100.00
64192;BME280;50497;50.720;-2.084;2023-04-10T06:07:09;102187.91;;;10.47;100.00
64192;BME280;50497;50.720;-2.084;2023-04-10T06:09:38;102224.16;;;10.60;100.00
64192;BME280;50497;50.720;-2.084;2023-04-10T06:12:06;102193.19;;;10.50;100.00
64192;BME280;50497;50.720;-2.084;2023-04-10T06:14:31;102221.63;;;10.54;100.00
64192;BME280;50497;50.720;-2.084;2023-04-10T06:17:00;102228.72;;;10.57;100.00
64192;BME280;50497;50.720;-2.084;2023-04-10T06:19:32;102217.06;;;10.59;100.00
64192;BME280;50497;50.720;-2.084;2023-04-10T06:21:58;102221.50;;;10.59;100.00
64192;BME280;50497;50.720;-2.084;2023-04-10T06:24:26;102222.41;;;10.59;100.00
64192;BME280;50497;50.720;-2.084;2023-04-10T06:26:55;102216.16;;;10.59;100.00
64192;BME280;50497;50.720;-2.084;2023-04-10T06:29:22;102180.47;;;10.60;100.00
64192;BME280;50497;50.720;-2.084;2023-04-10T06:31:50;102120.22;;;10.43;100.00
64192;BME280;50497;50.720;-2.084;2023-04-10T06:34:18;102119.13;;;10.50;100.00
64192;BME280;50497;50.720;-2.084;2023-04-10T06:36:47;102110.25;;;10.48;100.00
64192;BME280;50497;50.720;-2.084;2023-04-10T06:39:15;102080.94;;;10.44;100.00
64192;BME280;50497;50.720;-2.084;2023-04-10T06:41:40;102063.19;;;10.41;100.00
64192;BME280;50497;50.720;-2.084;2023-04-10T06:44:05;102006.81;;;10.47;100.00
64192;BME280;50497;50.720;-2.084;2023-04-10T06:46:31;101877.63;;;10.42;100.00
64192;BME280;50497;50.720;-2.084;2023-04-10T06:48:56;101900.56;;;10.52;100.00
64192;BME280;50497;50.720;-2.084;2023-04-10T06:51:21;101894.41;;;10.49;100.00
64192;BME280;50497;50.720;-2.084;2023-04-10T06:53:47;101868.78;;;10.40;100.00
64192;BME280;50497;50.720;-2.084;2023-04-10T06:56:12;101872.13;;;10.48;100.00
64192;BME280;50497;50.720;-2.084;2023-04-10T06:58:38;101878.50;;;10.44;100.00
64192;BME280;50497;50.720;-2.084;2023-04-10T07:01:03;101839.44;;;10.37;100.00
64192;BME280;50497;50.720;-2.084;2023-04-10T07:03:30;101840.28;;;10.39;100.00
64192;BME280;50497;50.720;-2.084;2023-04-10T07:05:56;101849.06;;;10.44;100.00
64192;BME280;50497;50.720;-2.084;2023-04-10T07:08:22;101846.16;;;10.52;100.00
64192;BME280;50497;50.720;-2.084;2023-04-10T07:10:51;101855.00;;;10.54;100.00
64192;BME280;50497;50.720;-2.084;2023-04-10T07:13:17;101836.69;;;10.40;100.00
64192;BME280;50497;50.720;-2.084;2023-04-10T07:15:42;101825.97;;;10.40;100.00
64192;BME280;50497;50.720;-2.084;2023-04-10T07:18:07;101825.81;;;10.46;100.00
64192;BME280;50497;50.720;-2.084;2023-04-10T07:20:33;101839.16;;;10.48;100.00
64192;BME280;50497;50.720;-2.084;2023-04-10T07:22:58;101822.09;;;10.50;100.00
64192;BME280;50497;50.720;-2.084;2023-04-10T07:25:24;101819.47;;;10.49;100.00
64192;BME280;50497;50.720;-2.084;2023-04-10T07:27:50;101850.56;;;10.54;100.00
64192;BME280;50497;50.720;-2.084;2023-04-10T07:30:15;101805.09;;;10.53;100.00
64192;BME280;50497;50.720;-2.084;2023-04-10T07:32:42;101817.31;;;10.62;100.00
64192;BME280;50497;50.720;-2.084;2023-04-10T07:35:08;101817.38;;;10.60;100.00
64192;BME280;50497;50.720;-2.084;2023-04-10T07:37:33;101827.09;;;10.63;100.00
64192;BME280;50497;50.720;-2.084;2023-04-10T07:39:58;101815.38;;;10.67;100.00
64192;BME280;50497;50.720;-2.084;2023-04-10T07:42:25;101827.03;;;10.66;100.00
64192;BME280;50497;50.720;-2.084;2023-04-10T07:44:50;101800.44;;;10.60;100.00
64192;BME280;50497;50.720;-2.084;2023-04-10T07:47:16;101813.47;;;10.70;100.00
64192;BME280;50497;50.720;-2.084;2023-04-10T07:49:42;101818.78;;;10.72;100.00
64192;BME280;50497;50.720;-2.084;2023-04-10T07:52:07;101806.56;;;10.63;100.00
64192;BME280;50497;50.720;-2.084;2023-04-10T07:54:33;101806.47;;;10.66;100.00
64192;BME280;50497;50.720;-2.084;2023-04-10T07:56:59;101822.22;;;10.76;100.00
64192;BME280;50497;50.720;-2.084;2023-04-10T07:59:26;101828.41;;;10.79;100.00
64192;BME280;50497;50.720;-2.084;2023-04-10T08:01:52;101809.78;;;10.75;100.00
64192;BME280;50497;50.720;-2.084;2023-04-10T08:04:17;101822.19;;;10.77;100.00
64192;BME280;50497;50.720;-2.084;2023-04-10T08:06:43;101826.53;;;10.81;100.00
64192;BME280;50497;50.720;-2.084;2023-04-10T08:09:08;101822.19;;;10.77;100.00
64192;BME280;50497;50.720;-2.084;2023-04-10T08:11:34;101823.03;;;10.79;100.00
64192;BME280;50497;50.720;-2.084;2023-04-10T08:14:01;101828.97;;;10.89;100.00
64192;BME280;50497;50.720;-2.084;2023-04-10T08:16:30;101821.25;;;10.80;100.00
64192;BME280;50497;50.720;-2.084;2023-04-10T08:18:56;101807.97;;;10.75;100.00
64192;BME280;50497;50.720;-2.084;2023-04-10T08:21:24;101828.13;;;10.87;100.00
64192;BME280;50497;50.720;-2.084;2023-04-10T08:23:58;101828.97;;;10.89;100.00
64192;BME280;50497;50.720;-2.084;2023-04-10T08:26:24;101812.34;;;10.79;100.00
64192;BME280;50497;50.720;-2.084;2023-04-10T08:28:55;101831.41;;;10.97;100.00
64192;BME280;50497;50.720;-2.084;2023-04-10T08:31:29;101826.25;;;10.90;100.00
64192;BME280;50497;50.720;-2.084;2023-04-10T08:33:55;101839.53;;;10.94;100.00
64192;BME280;50497;50.720;-2.084;2023-04-10T08:36:25;101834.03;;;10.98;100.00
64192;BME280;50497;50.720;-2.084;2023-04-10T08:38:56;101839.31;;;11.01;100.00
64192;BME280;50497;50.720;-2.084;2023-04-10T08:41:24;101842.91;;;11.00;100.00
64192;BME280;50497;50.720;-2.084;2023-04-10T08:43:55;101838.22;;;11.07;100.00
64192;BME280;50497;50.720;-2.084;2023-04-10T08:46:23;101853.34;;;11.09;100.00
64192;BME280;50497;50.720;-2.084;2023-04-10T08:49:02;101847.88;;;11.13;100.00
64192;BME280;50497;50.720;-2.084;2023-04-10T08:51:38;101854.97;;;11.14;100.00
64192;BME280;50497;50.720;-2.084;2023-04-10T08:54:10;101845.16;;;11.14;100.00
64192;BME280;50497;50.720;-2.084;2023-04-10T08:56:49;101846.59;;;11.24;100.00
64192;BME280;50497;50.720;-2.084;2023-04-10T08:59:16;101825.56;;;11.12;100.00
64192;BME280;50497;50.720;-2.084;2023-04-10T09:01:50;101830.09;;;11.10;100.00
64192;BME280;50497;50.720;-2.084;2023-04-10T09:04:18;101819.13;;;11.18;100.00
64192;BME280;50497;50.720;-2.084;2023-04-10T09:06:45;101816.94;;;11.31;100.00
64192;BME280;50497;50.720;-2.084;2023-04-10T09:09:18;101807.84;;;11.35;100.00
64192;BME280;50497;50.720;-2.084;2023-04-10T09:14:26;101806.50;;;11.48;100.00
64192;BME280;50497;50.720;-2.084;2023-04-10T09:17:09;101805.22;;;11.60;100.00
64192;BME280;50497;50.720;-2.084;2023-04-10T09:19:35;101795.66;;;11.78;100.00
64192;BME280;50497;50.720;-2.084;2023-04-10T09:22:08;101782.69;;;11.65;100.00
64192;BME280;50497;50.720;-2.084;2023-04-10T09:24:35;101783.47;;;11.94;100.00
64192;BME280;50497;50.720;-2.084;2023-04-10T09:27:02;101768.19;;;11.71;100.00
64192;BME280;50497;50.720;-2.084;2023-04-10T09:29:44;101711.69;;;11.77;100.00
64192;BME280;50497;50.720;-2.084;2023-04-10T09:32:12;101721.63;;;11.99;100.00
64192;BME280;50497;50.720;-2.084;2023-04-10T09:34:54;101691.13;;;12.01;100.00
64192;BME280;50497;50.720;-2.084;2023-04-10T09:37:23;101693.09;;;11.96;100.00
64192;BME280;50497;50.720;-2.084;2023-04-10T09:39:55;101742.38;;;12.17;100.00
64192;BME280;50497;50.720;-2.084;2023-04-10T09:42:40;101811.56;;;12.09;100.00
64192;BME280;50497;50.720;-2.084;2023-04-10T09:45:06;101855.72;;;12.24;100.00
64192;BME280;50497;50.720;-2.084;2023-04-10T09:47:39;101843.94;;;12.03;100.00
64192;BME280;50497;50.720;-2.084;2023-04-10T09:50:07;101810.19;;;11.97;100.00
64192;BME280;50497;50.720;-2.084;2023-04-10T09:52:37;101778.00;;;11.97;100.00
64192;BME280;50497;50.720;-2.084;2023-04-10T09:55:04;101696.22;;;11.84;100.00
64192;BME280;50497;50.720;-2.084;2023-04-10T09:57:35;101590.97;;;11.79;100.00
64192;BME280;50497;50.720;-2.084;2023-04-10T10:00:02;101510.09;;;11.90;100.00
64192;BME280;50497;50.720;-2.084;2023-04-10T10:02:39;101428.03;;;11.86;100.00
64192;BME280;50497;50.720;-2.084;2023-04-10T10:05:06;101386.72;;;11.91;100.00
64192;BME280;50497;50.720;-2.084;2023-04-10T10:07:35;101325.19;;;11.87;100.00
64192;BME280;50497;50.720;-2.084;2023-04-10T10:10:06;101279.03;;;11.80;100.00
64192;BME280;50497;50.720;-2.084;2023-04-10T10:12:50;101231.41;;;11.85;100.00
64192;BME280;50497;50.720;-2.084;2023-04-10T10:16:00;101189.31;;;12.08;100.00
64192;BME280;50497;50.720;-2.084;2023-04-10T10:21:25;101160.91;;;12.04;100.00
64192;BME280;50497;50.720;-2.084;2023-04-10T10:23:53;101131.84;;;11.94;100.00
64192;BME280;50497;50.720;-2.084;2023-04-10T10:26:20;101156.09;;;11.91;100.00
64192;BME280;50497;50.720;-2.084;2023-04-10T10:28:49;101135.09;;;12.01;100.00
64192;BME280;50497;50.720;-2.084;2023-04-10T10:31:20;101115.47;;;12.00;100.00
64192;BME280;50497;50.720;-2.084;2023-04-10T10:33:51;101104.25;;;11.92;100.00
64192;BME280;50497;50.720;-2.084;2023-04-10T10:36:21;101130.59;;;12.20;100.00
64192;BME280;50497;50.720;-2.084;2023-04-10T10:42:15;101136.09;;;12.36;100.00
64192;BME280;50497;50.720;-2.084;2023-04-10T10:47:26;101154.81;;;12.74;100.00
64192;BME280;50497;50.720;-2.084;2023-04-10T10:50:00;101163.00;;;12.71;100.00
64192;BME280;50497;50.720;-2.084;2023-04-10T10:52:43;101168.78;;;12.81;100.00
64192;BME280;50497;50.720;-2.084;2023-04-10T10:57:50;101226.44;;;13.28;100.00
64192;BME280;50497;50.720;-2.084;2023-04-10T11:00:21;101228.06;;;13.32;100.00
64192;BME280;50497;50.720;-2.084;2023-04-10T11:05:55;101328.31;;;13.69;100.00
64192;BME280;50497;50.720;-2.084;2023-04-10T11:11:19;101357.94;;;15.36;100.00
64192;BME280;50497;50.720;-2.084;2023-04-10T11:16:21;101497.88;;;15.41;100.00
64192;BME280;50497;50.720;-2.084;2023-04-10T11:21:20;101524.25;;;15.67;100.00
64192;BME280;50497;50.720;-2.084;2023-04-10T11:34:21;101535.88;;;15.52;100.00
64192;BME280;50497;50.720;-2.084;2023-04-10T11:36:50;101527.75;;;15.69;100.00
64192;BME280;50497;50.720;-2.084;2023-04-10T11:39:18;101544.66;;;15.89;100.00
64192;BME280;50497;50.720;-2.084;2023-04-10T11:41:52;101539.75;;;16.12;100.00
64192;BME280;50497;50.720;-2.084;2023-04-10T11:44:29;101517.63;;;16.21;100.00
64192;BME280;50497;50.720;-2.084;2023-04-10T11:46:56;101545.22;;;16.56;100.00
64192;BME280;50497;50.720;-2.084;2023-04-10T11:49:29;101591.56;;;16.34;100.00
64192;BME280;50497;50.720;-2.084;2023-04-10T11:51:55;101577.22;;;16.18;100.00
64192;BME280;50497;50.720;-2.084;2023-04-10T11:54:25;101523.03;;;16.21;100.00
64192;BME280;50497;50.720;-2.084;2023-04-10T11:59:33;101583.75;;;16.14;100.00
64192;BME280;50497;50.720;-2.084;2023-04-10T12:02:09;101522.16;;;15.57;100.00
64192;BME280;50497;50.720;-2.084;2023-04-10T12:04:36;101495.84;;;15.78;100.00
64192;BME280;50497;50.720;-2.084;2023-04-10T12:07:02;101513.75;;;15.95;100.00
64192;BME280;50497;50.720;-2.084;2023-04-10T12:09:28;101543.47;;;15.12;100.00
64192;BME280;50497;50.720;-2.084;2023-04-10T12:11:59;101510.31;;;14.76;100.00
64192;BME280;50497;50.720;-2.084;2023-04-10T12:14:35;101448.84;;;15.01;100.00
64192;BME280;50497;50.720;-2.084;2023-04-10T12:17:06;101500.38;;;15.28;100.00
64192;BME280;50497;50.720;-2.084;2023-04-10T12:19:32;101492.41;;;15.09;100.00
64192;BME280;50497;50.720;-2.084;2023-04-10T12:21:59;101450.44;;;15.68;100.00
64192;BME280;50497;50.720;-2.084;2023-04-10T12:24:47;101526.50;;;16.23;100.00
64192;BME280;50497;50.720;-2.084;2023-04-10T12:27:20;101568.78;;;16.54;100.00
64192;BME280;50497;50.720;-2.084;2023-04-10T12:29:46;101584.19;;;16.22;100.00
64192;BME280;50497;50.720;-2.084;2023-04-10T12:32:12;101612.28;;;16.02;100.00
64192;BME280;50497;50.720;-2.084;2023-04-10T12:34:38;101615.34;;;16.12;100.00
64192;BME280;50497;50.720;-2.084;2023-04-10T12:37:04;101631.56;;;15.96;100.00
64192;BME280;50497;50.720;-2.084;2023-04-10T12:39:33;101632.50;;;15.95;100.00
64192;BME280;50497;50.720;-2.084;2023-04-10T12:42:16;101633.81;;;15.87;100.00
64192;BME280;50497;50.720;-2.084;2023-04-10T12:44:59;101613.00;;;16.37;100.00
64192;BME280;50497;50.720;-2.084;2023-04-10T12:47:31;101650.19;;;16.00;100.00
64192;BME280;50497;50.720;-2.084;2023-04-10T12:50:11;101651.75;;;16.04;100.00
64192;BME280;50497;50.720;-2.084;2023-04-10T12:52:40;101663.66;;;16.64;100.00
64192;BME280;50497;50.720;-2.084;2023-04-10T12:55:20;101673.00;;;16.42;100.00
64192;BME280;50497;50.720;-2.084;2023-04-10T12:57:47;101697.94;;;15.82;100.00
64192;BME280;50497;50.720;-2.084;2023-04-10T13:00:18;101667.41;;;16.93;100.00
64192;BME280;50497;50.720;-2.084;2023-04-10T13:02:47;101661.38;;;17.18;100.00
64192;BME280;50497;50.720;-2.084;2023-04-10T13:05:17;101715.34;;;16.74;100.00
64192;BME280;50497;50.720;-2.084;2023-04-10T13:07:43;101731.09;;;17.88;100.00
64192;BME280;50497;50.720;-2.084;2023-04-10T13:10:08;101742.41;;;17.50;100.00
64192;BME280;50497;50.720;-2.084;2023-04-10T13:12:35;101731.31;;;17.25;100.00
64192;BME280;50497;50.720;-2.084;2023-04-10T13:15:02;101740.91;;;17.75;100.00
64192;BME280;50497;50.720;-2.084;2023-04-10T13:17:27;101743.94;;;17.54;100.00
64192;BME280;50497;50.720;-2.084;2023-04-10T13:19:53;101744.03;;;16.92;100.00
64192;BME280;50497;50.720;-2.084;2023-04-10T13:22:18;101717.16;;;17.05;100.00
64192;BME280;50497;50.720;-2.084;2023-04-10T13:24:44;101720.41;;;16.96;100.00
64192;BME280;50497;50.720;-2.084;2023-04-10T13:27:14;101697.56;;;16.70;100.00
64192;BME280;50497;50.720;-2.084;2023-04-10T13:29:44;101716.91;;;16.94;100.00
64192;BME280;50497;50.720;-2.084;2023-04-10T13:32:10;101729.16;;;17.15;100.00
64192;BME280;50497;50.720;-2.084;2023-04-10T13:34:39;101734.69;;;16.66;100.00
64192;BME280;50497;50.720;-2.084;2023-04-10T13:37:07;101697.72;;;16.98;100.00
64192;BME280;50497;50.720;-2.084;2023-04-10T13:39:33;101715.69;;;16.84;100.00